Time;durP1;ratioP1;P1;durP2;ratioP2;P2;SDS_P1;SDS_P2;PMS_P1;PMS_P2;Temp;Humidity;BMP_temperature;BMP_pressure;BME280_temperature;BME280_humidity;BME280_pressure;Samples;Min_cycle;Max_cycle;Signal;HPM_P1;HPM_P2
2021/01/14 00:01:33;;;;;;;6.80;5.60;;;4.70;99.90;;;;;;5037239;28;21291;-71
2021/01/14 00:04:00;;;;;;;6.53;5.73;;;4.70;99.90;;;;;;5044292;28;20453;-70
2021/01/14 00:06:26;;;;;;;8.67;6.73;;;4.70;99.90;;;;;;5043637;28;20493;-72
2021/01/14 00:08:53;;;;;;;7.60;6.53;;;4.70;99.90;;;;;;5049205;28;20440;-72
2021/01/14 00:11:19;;;;;;;7.27;6.43;;;4.70;99.90;;;;;;5049962;28;20551;-72
2021/01/14 00:13:45;;;;;;;7.10;5.90;;;4.70;99.90;;;;;;5042328;28;20447;-72
2021/01/14 00:16:12;;;;;;;7.77;6.97;;;4.70;99.90;;;;;;5050697;28;20526;-73
2021/01/14 00:18:39;;;;;;;6.63;5.70;;;4.70;99.90;;;;;;5051535;28;20555;-72
2021/01/14 00:21:05;;;;;;;6.77;5.77;;;4.60;99.90;;;;;;5050850;28;20526;-72
2021/01/14 00:23:32;;;;;;;5.60;4.77;;;4.60;99.90;;;;;;5051580;28;20535;-73
2021/01/14 00:25:58;;;;;;;5.83;5.00;;;4.60;99.90;;;;;;5051293;28;20479;-73
2021/01/14 00:35:11;;;;;;;4.97;4.33;;;4.60;99.90;;;;;;5050109;28;20425;-73
2021/01/14 00:37:53;;;;;;;5.73;5.20;;;4.60;99.90;;;;;;5046551;28;20440;-73
2021/01/14 00:40:22;;;;;;;5.20;4.43;;;4.60;99.90;;;;;;5050565;28;20510;-73
2021/01/14 00:42:55;;;;;;;5.83;5.33;;;4.60;99.90;;;;;;5051112;28;20547;-73
2021/01/14 00:45:22;;;;;;;5.10;4.60;;;4.60;99.90;;;;;;5050809;28;20952;-73
2021/01/14 00:47:48;;;;;;;5.87;5.17;;;4.60;99.90;;;;;;5050684;28;20541;-73
2021/01/14 00:50:15;;;;;;;6.00;5.03;;;4.60;99.90;;;;;;5050637;28;20510;-73
2021/01/14 00:52:42;;;;;;;6.20;5.47;;;4.50;99.90;;;;;;5050988;28;20550;-72
2021/01/14 00:55:09;;;;;;;5.73;5.13;;;4.50;99.90;;;;;;5051036;28;20531;-72
2021/01/14 00:57:36;;;;;;;6.03;5.30;;;4.60;99.90;;;;;;5050702;28;20944;-73
2021/01/14 01:00:06;;;;;;;6.50;5.53;;;4.50;99.90;;;;;;5049965;28;20448;-73
2021/01/14 01:02:33;;;;;;;6.70;5.70;;;4.50;99.90;;;;;;5050921;28;20448;-73
2021/01/14 01:21:50;;;;;;;5.30;4.80;;;4.50;99.90;;;;;;5043347;28;20958;-72
2021/01/14 01:24:16;;;;;;;5.97;4.93;;;4.40;99.90;;;;;;5050264;28;20535;-73
2021/01/14 01:26:43;;;;;;;6.60;4.90;;;4.40;99.90;;;;;;5050078;28;20479;-73
2021/01/14 01:29:09;;;;;;;7.00;5.77;;;4.40;99.90;;;;;;5049592;28;20501;-73
2021/01/14 01:31:39;;;;;;;6.23;5.30;;;4.40;99.90;;;;;;5049900;28;20464;-73
2021/01/14 01:34:05;;;;;;;7.40;5.60;;;4.40;99.90;;;;;;5050170;28;20448;-73
2021/01/14 01:36:31;;;;;;;5.70;4.90;;;4.50;99.90;;;;;;5050285;28;20436;-73
2021/01/14 01:38:59;;;;;;;7.10;6.27;;;4.40;99.90;;;;;;5050056;28;20487;-71
2021/01/14 01:41:25;;;;;;;7.50;5.70;;;4.40;99.90;;;;;;5049750;28;20547;-72
2021/01/14 01:43:52;;;;;;;8.10;5.70;;;4.40;99.90;;;;;;5049931;28;20996;-72
2021/01/14 01:46:25;;;;;;;7.27;6.47;;;4.40;99.90;;;;;;5049755;28;20991;-71
2021/01/14 01:48:52;;;;;;;8.80;6.33;;;4.40;99.90;;;;;;5050264;28;20531;-70
2021/01/14 01:51:19;;;;;;;6.70;5.70;;;4.40;99.90;;;;;;5049426;28;21131;-71
2021/01/14 01:53:46;;;;;;;5.90;5.07;;;4.30;99.90;;;;;;5049876;28;20530;-72
2021/01/14 01:56:15;;;;;;;7.30;6.60;;;4.30;99.90;;;;;;5049605;28;20539;-72
2021/01/14 01:58:42;;;;;;;7.73;6.10;;;4.30;99.90;;;;;;5049522;28;20827;-72
2021/01/14 02:01:08;;;;;;;6.10;5.50;;;4.30;99.90;;;;;;5048961;28;20547;-71
2021/01/14 02:03:35;;;;;;;7.20;6.50;;;4.30;99.90;;;;;;5049768;28;20448;-71
2021/01/14 02:06:02;;;;;;;7.40;6.50;;;4.30;99.90;;;;;;5049459;28;20593;-72
2021/01/14 02:08:38;;;;;;;6.13;4.90;;;4.30;99.90;;;;;;5049753;28;20448;-73
2021/01/14 02:11:09;;;;;;;6.53;5.47;;;4.30;99.90;;;;;;5048974;28;20463;-73
2021/01/14 02:23:33;;;;;;;5.27;4.77;;;4.20;99.90;;;;;;5006721;28;20935;-71
2021/01/14 02:26:14;;;;;;;6.10;4.93;;;4.20;99.90;;;;;;5029100;28;20495;-72
2021/01/14 02:28:41;;;;;;;8.67;5.60;;;4.20;99.90;;;;;;5049100;28;20444;-72
2021/01/14 02:31:07;;;;;;;6.10;5.47;;;4.20;99.90;;;;;;5047806;28;20460;-72
2021/01/14 02:33:34;;;;;;;8.20;5.10;;;4.20;99.90;;;;;;5049043;28;20448;-72
2021/01/14 02:36:00;;;;;;;4.90;4.30;;;4.20;99.90;;;;;;5048886;28;20451;-72
2021/01/14 02:38:27;;;;;;;5.83;4.63;;;4.20;99.90;;;;;;5049197;28;20820;-72
2021/01/14 02:40:53;;;;;;;4.93;3.90;;;4.20;99.90;;;;;;5048554;28;20475;-72
2021/01/14 02:43:20;;;;;;;5.00;3.97;;;4.20;99.90;;;;;;5049101;28;20452;-72
2021/01/14 02:45:47;;;;;;;5.83;4.20;;;4.10;99.90;;;;;;5049039;28;20470;-72
2021/01/14 02:48:17;;;;;;;4.60;3.83;;;4.10;99.90;;;;;;5048971;28;20645;-71
2021/01/14 02:50:45;;;;;;;5.03;3.03;;;4.10;99.90;;;;;;5048316;28;20472;-72
2021/01/14 02:53:15;;;;;;;6.20;3.23;;;4.10;99.90;;;;;;5049238;28;20443;-72
2021/01/14 02:55:43;;;;;;;4.67;3.37;;;4.00;99.90;;;;;;5048908;28;20496;-72
2021/01/14 02:58:10;;;;;;;5.23;3.67;;;3.90;99.90;;;;;;5048940;28;20798;-72
2021/01/14 03:00:37;;;;;;;4.60;3.37;;;3.90;99.90;;;;;;5048155;28;21035;-72
2021/01/14 03:03:03;;;;;;;4.37;3.37;;;3.90;99.90;;;;;;5048947;28;20484;-72
2021/01/14 03:05:30;;;;;;;3.73;2.80;;;3.80;99.90;;;;;;5048385;28;20451;-72
2021/01/14 03:07:56;;;;;;;3.53;2.67;;;3.80;99.90;;;;;;5047859;28;20571;-72
2021/01/14 03:10:22;;;;;;;3.40;2.80;;;3.70;99.90;;;;;;5047912;28;20460;-72
2021/01/14 03:12:49;;;;;;;3.30;2.80;;;3.70;99.90;;;;;;5048894;28;20836;-72
2021/01/14 03:15:15;;;;;;;2.93;2.57;;;3.70;99.90;;;;;;5048821;28;20528;-72
2021/01/14 03:17:43;;;;;;;4.03;3.10;;;3.70;99.90;;;;;;5048808;28;20519;-73
2021/01/14 03:20:09;;;;;;;3.60;2.83;;;3.70;99.90;;;;;;5048312;28;20456;-73
2021/01/14 03:22:40;;;;;;;4.17;2.93;;;3.70;99.90;;;;;;5048552;28;20539;-73
2021/01/14 03:25:09;;;;;;;6.50;3.20;;;3.60;99.90;;;;;;5048481;28;20483;-73
2021/01/14 03:27:44;;;;;;;4.77;3.30;;;3.60;99.90;;;;;;5048506;28;20486;-73
2021/01/14 03:30:14;;;;;;;4.10;3.30;;;3.60;99.90;;;;;;5047798;28;20453;-73
2021/01/14 03:32:41;;;;;;;4.73;3.43;;;3.50;99.90;;;;;;5048437;28;20595;-72
2021/01/14 03:35:09;;;;;;;4.17;3.10;;;3.50;99.90;;;;;;5048581;28;20874;-71
2021/01/14 03:37:38;;;;;;;4.10;3.20;;;3.40;99.90;;;;;;5048741;28;20820;-71
2021/01/14 03:40:06;;;;;;;8.07;3.93;;;3.30;99.90;;;;;;5047851;28;20456;-71
2021/01/14 03:42:32;;;;;;;3.70;3.20;;;3.30;99.90;;;;;;5049107;28;20534;-72
2021/01/14 03:44:58;;;;;;;4.70;3.03;;;3.20;99.90;;;;;;5051976;28;20887;-72
2021/01/14 03:47:25;;;;;;;4.50;3.10;;;3.20;99.90;;;;;;5052181;28;20575;-71
2021/01/14 03:49:51;;;;;;;4.83;3.13;;;3.20;99.90;;;;;;5051496;28;20535;-72
2021/01/14 03:52:19;;;;;;;4.80;3.83;;;3.10;99.90;;;;;;5052034;28;20466;-73
2021/01/14 03:54:46;;;;;;;6.83;4.40;;;3.10;99.90;;;;;;5051879;28;20473;-72
2021/01/14 03:57:13;;;;;;;6.03;3.97;;;3.00;99.90;;;;;;5051660;28;20936;-72
2021/01/14 03:59:39;;;;;;;5.73;4.00;;;3.00;99.90;;;;;;5051505;28;20820;-72
2021/01/14 04:02:06;;;;;;;4.77;3.70;;;3.00;99.90;;;;;;5051984;28;20464;-72
2021/01/14 04:04:34;;;;;;;6.27;3.60;;;3.00;99.90;;;;;;5052015;28;20497;-72
2021/01/14 04:07:00;;;;;;;6.13;4.17;;;2.90;99.90;;;;;;5051494;28;20836;-72
2021/01/14 04:09:28;;;;;;;5.17;4.30;;;3.00;99.90;;;;;;5051162;28;20859;-72
2021/01/14 04:11:55;;;;;;;9.50;4.40;;;2.90;99.90;;;;;;5051489;28;20474;-72
2021/01/14 04:14:21;;;;;;;5.90;4.70;;;2.90;99.90;;;;;;5051798;28;20829;-72
2021/01/14 04:16:51;;;;;;;6.53;4.33;;;2.80;99.90;;;;;;5051407;28;20475;-72
2021/01/14 04:19:19;;;;;;;7.90;4.13;;;2.80;99.90;;;;;;5051119;28;20471;-72
2021/01/14 04:21:45;;;;;;;6.67;4.60;;;2.80;99.90;;;;;;5051124;28;20547;-72
2021/01/14 04:24:12;;;;;;;8.80;4.33;;;2.80;99.90;;;;;;5051345;28;20560;-72
2021/01/14 04:26:39;;;;;;;9.77;5.70;;;2.80;99.90;;;;;;5051058;28;20501;-72
2021/01/14 04:29:06;;;;;;;4.80;4.20;;;2.80;99.90;;;;;;5050949;28;20527;-72
2021/01/14 04:31:33;;;;;;;6.90;4.20;;;2.80;99.90;;;;;;5051243;28;20464;-72
2021/01/14 04:34:00;;;;;;;5.30;4.33;;;2.80;99.90;;;;;;5051268;28;20547;-72
2021/01/14 04:36:26;;;;;;;7.17;4.80;;;2.70;99.90;;;;;;5051074;28;20497;-72
2021/01/14 04:38:53;;;;;;;7.60;5.43;;;2.70;99.90;;;;;;5051175;28;20527;-72
2021/01/14 04:41:20;;;;;;;5.67;4.77;;;2.70;99.90;;;;;;5050421;28;20463;-72
2021/01/14 04:43:48;;;;;;;10.60;5.27;;;2.70;99.90;;;;;;5051287;28;20489;-72
2021/01/14 04:46:15;;;;;;;6.47;5.20;;;2.70;99.90;;;;;;5050883;28;20490;-72
2021/01/14 04:48:43;;;;;;;6.13;5.13;;;2.70;99.90;;;;;;5051018;28;20535;-72
2021/01/14 04:51:11;;;;;;;9.83;5.67;;;2.70;99.90;;;;;;5050277;28;20466;-72
2021/01/14 04:53:39;;;;;;;6.50;5.07;;;2.70;99.90;;;;;;5050723;28;20869;-72
2021/01/14 04:56:07;;;;;;;6.40;5.20;;;2.70;99.90;;;;;;5050238;28;20448;-72
2021/01/14 04:58:34;;;;;;;8.00;4.97;;;2.70;99.90;;;;;;5051067;28;20538;-73
2021/01/14 05:01:05;;;;;;;8.83;5.43;;;2.70;99.90;;;;;;5050232;28;21318;-72
2021/01/14 05:03:35;;;;;;;8.43;6.13;;;2.60;99.90;;;;;;5050708;28;20444;-72
2021/01/14 05:06:04;;;;;;;7.60;5.63;;;2.60;99.90;;;;;;5050483;28;20839;-73
2021/01/14 05:08:32;;;;;;;8.73;5.63;;;2.60;99.90;;;;;;5050911;28;20815;-72
2021/01/14 05:10:59;;;;;;;8.90;6.27;;;2.60;99.90;;;;;;5050338;28;20968;-72
2021/01/14 05:13:29;;;;;;;8.20;5.77;;;2.60;99.90;;;;;;5050603;28;20462;-72
2021/01/14 05:15:55;;;;;;;10.10;6.70;;;2.60;99.90;;;;;;5050418;28;20531;-72
2021/01/14 05:18:22;;;;;;;11.50;6.10;;;2.50;99.90;;;;;;5050306;28;20439;-72
2021/01/14 05:20:49;;;;;;;10.83;6.17;;;2.50;99.90;;;;;;5049605;28;20471;-72
2021/01/14 05:23:20;;;;;;;11.27;6.40;;;2.50;99.90;;;;;;5050199;28;20505;-73
2021/01/14 05:25:52;;;;;;;10.40;5.97;;;2.40;99.90;;;;;;5050163;28;20451;-73
2021/01/14 05:28:20;;;;;;;10.27;6.70;;;2.40;99.90;;;;;;5050274;28;20494;-73
2021/01/14 05:30:46;;;;;;;9.20;6.43;;;2.40;99.90;;;;;;5049596;28;20221;-73
2021/01/14 05:33:15;;;;;;;8.67;7.17;;;2.30;99.90;;;;;;5050416;28;20534;-73
2021/01/14 05:35:49;;;;;;;13.10;6.70;;;2.30;99.90;;;;;;5050113;28;20493;-72
2021/01/14 05:38:26;;;;;;;10.03;7.40;;;2.40;99.90;;;;;;5050101;28;20439;-72
2021/01/14 05:41:18;;;;;;;10.43;6.40;;;2.40;99.90;;;;;;5049366;28;20533;-73
2021/01/14 05:43:53;;;;;;;10.40;7.23;;;2.40;99.90;;;;;;5051940;28;20444;-72
2021/01/14 05:46:21;;;;;;;11.03;7.47;;;2.30;99.90;;;;;;5054013;28;20507;-72
2021/01/14 05:48:49;;;;;;;9.60;7.67;;;2.30;99.90;;;;;;5052958;28;20539;-72
2021/01/14 05:51:20;;;;;;;11.47;7.30;;;2.30;99.90;;;;;;5049408;28;20994;-72
2021/01/14 05:53:55;;;;;;;10.20;7.43;;;2.30;99.90;;;;;;5049724;28;21126;-72
2021/01/14 05:56:32;;;;;;;10.37;7.70;;;2.30;99.90;;;;;;5049431;28;20443;-72
2021/01/14 05:58:59;;;;;;;11.30;7.87;;;2.30;99.90;;;;;;5049408;28;20530;-72
2021/01/14 06:01:26;;;;;;;16.83;8.20;;;2.30;99.90;;;;;;5049098;28;20464;-72
2021/01/14 06:03:52;;;;;;;8.53;7.23;;;2.30;99.90;;;;;;5049570;28;20536;-72
2021/01/14 06:06:20;;;;;;;12.63;7.37;;;2.20;99.90;;;;;;5049336;28;20576;-71
2021/01/14 06:08:47;;;;;;;12.33;7.97;;;2.30;99.90;;;;;;5049384;28;20538;-73
2021/01/14 06:11:22;;;;;;;16.23;9.97;;;2.30;99.90;;;;;;5044628;28;20629;-78
2021/01/14 06:13:49;;;;;;;10.37;7.23;;;2.30;99.90;;;;;;5050255;28;20462;-78
2021/01/14 06:16:16;;;;;;;9.47;7.33;;;2.30;99.90;;;;;;5048972;28;20540;-72
2021/01/14 06:19:06;;;;;;;12.87;8.23;;;2.30;99.90;;;;;;5046569;28;20451;-73
2021/01/14 06:21:44;;;;;;;10.87;8.70;;;2.30;99.90;;;;;;5025396;28;20473;-73
2021/01/14 06:24:18;;;;;;;9.53;7.60;;;2.30;99.90;;;;;;5027955;28;20459;-73
2021/01/14 06:26:45;;;;;;;14.40;9.10;;;2.30;99.90;;;;;;5028488;28;20484;-72
2021/01/14 06:29:24;;;;;;;11.10;8.90;;;2.30;99.90;;;;;;5028204;28;20449;-72
2021/01/14 06:31:50;;;;;;;11.73;8.57;;;2.30;99.90;;;;;;5029399;28;20517;-72
2021/01/14 06:34:20;;;;;;;16.10;9.00;;;2.20;99.90;;;;;;5027987;28;20537;-71
2021/01/14 06:36:49;;;;;;;10.87;7.40;;;2.20;99.90;;;;;;5035766;28;20505;-72
2021/01/14 06:39:22;;;;;;;12.17;8.13;;;2.20;99.90;;;;;;5047837;28;20482;-73
2021/01/14 06:41:48;;;;;;;13.60;8.03;;;2.30;99.90;;;;;;5041669;28;20976;-73
2021/01/14 06:44:16;;;;;;;13.57;9.30;;;2.30;99.90;;;;;;5046179;28;20519;-74
2021/01/14 06:46:43;;;;;;;10.80;8.23;;;2.30;99.90;;;;;;5046540;28;20487;-73
2021/01/14 06:49:13;;;;;;;9.23;8.10;;;2.30;99.90;;;;;;5046139;28;20825;-74
2021/01/14 06:51:56;;;;;;;12.00;8.80;;;2.30;99.90;;;;;;5046740;28;20496;-74
2021/01/14 06:54:25;;;;;;;13.97;10.30;;;2.30;99.90;;;;;;5047000;28;20447;-74
2021/01/14 06:57:03;;;;;;;12.33;7.93;;;2.30;99.90;;;;;;5046377;28;20455;-74
2021/01/14 06:59:30;;;;;;;12.17;8.77;;;2.30;99.90;;;;;;5046121;28;20539;-75
2021/01/14 07:02:14;;;;;;;14.77;9.37;;;2.30;99.90;;;;;;5047300;28;20845;-78
2021/01/14 07:04:52;;;;;;;11.43;9.70;;;2.30;99.90;;;;;;5043495;28;21044;-71
2021/01/14 07:07:30;;;;;;;13.03;10.00;;;2.30;99.90;;;;;;5045008;28;20482;-72
2021/01/14 07:10:05;;;;;;;13.07;9.80;;;2.30;99.90;;;;;;5026160;28;20794;-73
2021/01/14 07:12:33;;;;;;;15.20;10.80;;;2.30;99.90;;;;;;5024974;28;20436;-69
2021/01/14 07:15:06;;;;;;;13.00;9.70;;;2.40;99.90;;;;;;5025031;28;20555;-70
2021/01/14 07:17:34;;;;;;;11.07;9.33;;;2.40;99.90;;;;;;5024724;28;20528;-69
2021/01/14 07:20:02;;;;;;;10.87;9.10;;;2.40;99.90;;;;;;5028126;28;20539;-70
2021/01/14 07:22:31;;;;;;;13.90;8.97;;;2.40;99.90;;;;;;5028856;28;20460;-70
2021/01/14 07:25:01;;;;;;;12.07;9.43;;;2.40;99.90;;;;;;5027770;28;20441;-69
2021/01/14 07:27:28;;;;;;;11.67;9.80;;;2.40;99.90;;;;;;5027885;28;20487;-72
2021/01/14 07:29:57;;;;;;;13.00;9.07;;;2.40;99.90;;;;;;5028428;28;20449;-74
2021/01/14 07:32:50;;;;;;;11.40;9.07;;;2.40;99.90;;;;;;5028917;28;20480;-75
2021/01/14 07:35:50;;;;;;;13.67;11.30;;;2.40;99.90;;;;;;5028796;28;20506;-74
2021/01/14 07:38:18;;;;;;;13.77;10.00;;;2.40;99.90;;;;;;5028320;28;20445;-74
2021/01/14 07:40:46;;;;;;;12.57;11.23;;;2.30;99.90;;;;;;5027274;28;20556;-73
2021/01/14 07:43:13;;;;;;;14.67;11.23;;;2.20;99.90;;;;;;5028878;28;20445;-76
2021/01/14 07:45:41;;;;;;;14.07;10.97;;;2.20;99.90;;;;;;5027924;28;20454;-77
2021/01/14 07:48:22;;;;;;;14.40;11.73;;;2.30;99.90;;;;;;5028382;28;20486;-75
2021/01/14 07:50:50;;;;;;;13.23;11.43;;;2.20;99.90;;;;;;5027592;28;20477;-75
2021/01/14 07:53:18;;;;;;;14.70;10.60;;;2.20;99.90;;;;;;5031613;28;21314;-75
2021/01/14 07:55:45;;;;;;;16.03;12.17;;;2.30;99.90;;;;;;5048105;28;20456;-77
2021/01/14 07:58:21;;;;;;;13.80;10.20;;;2.30;99.90;;;;;;5050099;28;20539;-73
2021/01/14 08:00:59;;;;;;;14.07;11.17;;;2.40;99.90;;;;;;5048700;28;20554;-74
2021/01/14 08:03:30;;;;;;;13.50;11.07;;;2.40;99.90;;;;;;5050094;28;20493;-72
2021/01/14 08:05:59;;;;;;;14.23;11.03;;;2.40;99.90;;;;;;5045736;28;20459;-72
2021/01/14 08:08:29;;;;;;;13.00;10.90;;;2.40;99.90;;;;;;5047385;28;20920;-72
2021/01/14 08:11:12;;;;;;;16.03;12.20;;;2.40;99.90;;;;;;5046987;28;20507;-70
2021/01/14 08:14:11;;;;;;;17.20;11.40;;;2.40;99.90;;;;;;5045096;28;20535;-71
2021/01/14 08:16:46;;;;;;;20.20;11.27;;;2.40;99.90;;;;;;5027622;28;20795;-71
2021/01/14 08:19:34;;;;;;;15.27;11.27;;;2.50;99.90;;;;;;5026848;28;20444;-71
2021/01/14 08:22:10;;;;;;;16.67;11.50;;;2.50;99.90;;;;;;5043959;28;20471;-70
2021/01/14 08:24:44;;;;;;;13.50;12.00;;;2.50;99.90;;;;;;5046392;28;20448;-70
2021/01/14 08:27:12;;;;;;;15.53;12.47;;;2.40;99.90;;;;;;5043032;28;20476;-73
2021/01/14 08:29:47;;;;;;;13.73;11.50;;;2.30;99.90;;;;;;5044860;28;20537;-71
2021/01/14 08:32:42;;;;;;;15.63;12.70;;;2.30;99.90;;;;;;5046905;28;20502;-71
2021/01/14 08:35:17;;;;;;;14.60;12.27;;;2.30;99.90;;;;;;5011158;28;20467;-72
2021/01/14 08:37:47;;;;;;;15.37;12.37;;;2.40;99.90;;;;;;5046796;28;20581;-71
2021/01/14 08:40:16;;;;;;;13.43;11.23;;;2.30;99.90;;;;;;5046962;28;20839;-71
2021/01/14 08:42:45;;;;;;;16.90;12.60;;;2.30;99.90;;;;;;5047541;28;20951;-71
2021/01/14 08:45:16;;;;;;;15.20;12.10;;;2.40;99.90;;;;;;5046630;28;21091;-73
2021/01/14 08:47:58;;;;;;;15.47;12.27;;;2.40;99.90;;;;;;5047199;28;20476;-71
2021/01/14 08:50:39;;;;;;;13.63;10.67;;;2.40;99.90;;;;;;5046576;28;20502;-72
2021/01/14 08:53:07;;;;;;;17.53;11.50;;;2.40;99.90;;;;;;5047661;28;20440;-72
2021/01/14 08:55:35;;;;;;;13.57;12.17;;;2.30;99.90;;;;;;5047309;28;20478;-72
2021/01/14 08:58:05;;;;;;;16.57;11.43;;;2.30;99.90;;;;;;5046933;28;21083;-72
2021/01/14 09:00:33;;;;;;;15.60;11.77;;;2.30;99.90;;;;;;5046656;28;20463;-71
2021/01/14 09:02:59;;;;;;;27.07;12.53;;;2.30;99.90;;;;;;5047202;28;20539;-72
2021/01/14 09:05:28;;;;;;;12.80;11.30;;;2.30;99.90;;;;;;5046365;28;20455;-71
2021/01/14 09:08:09;;;;;;;15.23;12.77;;;2.40;99.90;;;;;;5046952;28;20494;-74
2021/01/14 09:10:47;;;;;;;12.03;10.60;;;2.60;99.90;;;;;;5044881;28;20460;-74
2021/01/14 09:13:16;;;;;;;15.40;12.60;;;2.50;99.90;;;;;;5046485;28;20452;-75
2021/01/14 09:15:43;;;;;;;16.80;11.43;;;2.50;99.90;;;;;;5046989;28;20876;-74
2021/01/14 09:18:10;;;;;;;15.80;11.87;;;2.60;99.90;;;;;;5046807;28;21040;-73
2021/01/14 09:20:37;;;;;;;14.00;10.97;;;2.70;99.90;;;;;;5045589;28;20460;-73
2021/01/14 09:23:24;;;;;;;15.17;11.47;;;2.60;99.90;;;;;;5046669;28;20535;-73
2021/01/14 09:25:53;;;;;;;14.27;10.97;;;2.70;99.90;;;;;;5046464;28;20960;-71
2021/01/14 09:28:25;;;;;;;12.33;10.80;;;2.60;99.90;;;;;;5046461;28;20571;-69
2021/01/14 09:31:00;;;;;;;12.93;10.80;;;2.70;99.90;;;;;;5044500;28;20468;-73
2021/01/14 09:33:29;;;;;;;14.67;11.70;;;2.70;99.90;;;;;;5046128;28;20451;-71
2021/01/14 09:36:08;;;;;;;13.30;11.40;;;2.80;99.90;;;;;;5044450;28;20452;-70
2021/01/14 09:38:40;;;;;;;14.50;11.97;;;2.70;99.90;;;;;;5046677;28;20444;-71
2021/01/14 09:41:08;;;;;;;14.53;11.77;;;2.70;99.90;;;;;;5045983;28;20839;-75
2021/01/14 09:43:38;;;;;;;17.00;13.40;;;2.80;99.90;;;;;;5047624;28;20458;-73
2021/01/14 09:46:04;;;;;;;14.03;12.43;;;2.80;99.90;;;;;;5046566;28;20531;-74
2021/01/14 09:48:33;;;;;;;15.03;12.63;;;2.80;99.90;;;;;;5044416;28;20572;-72
2021/01/14 09:51:06;;;;;;;14.00;11.53;;;2.90;99.90;;;;;;5044103;28;20571;-73
2021/01/14 09:53:33;;;;;;;16.80;13.37;;;2.90;99.90;;;;;;5045432;28;20797;-70
2021/01/14 09:56:02;;;;;;;14.23;11.57;;;2.90;99.90;;;;;;5045526;28;20555;-70
2021/01/14 09:58:32;;;;;;;16.90;11.93;;;3.00;99.90;;;;;;5045104;28;20479;-71
2021/01/14 10:01:01;;;;;;;13.10;11.30;;;3.00;99.90;;;;;;5044937;28;20595;-71
2021/01/14 10:03:28;;;;;;;14.57;12.50;;;3.00;99.90;;;;;;5046132;28;20859;-71
2021/01/14 10:05:59;;;;;;;12.57;10.73;;;3.00;99.90;;;;;;5045475;28;20527;-75
2021/01/14 10:08:29;;;;;;;13.17;11.80;;;3.10;99.90;;;;;;5046412;28;20621;-71
2021/01/14 10:10:56;;;;;;;13.93;12.33;;;3.10;99.90;;;;;;5045063;28;20895;-70
2021/01/14 10:13:23;;;;;;;15.20;11.97;;;3.20;99.90;;;;;;5045409;28;21291;-71
2021/01/14 10:15:50;;;;;;;15.83;12.53;;;3.20;99.90;;;;;;5046004;28;20535;-72
2021/01/14 10:18:25;;;;;;;15.60;11.90;;;3.20;99.90;;;;;;5046436;28;20528;-71
2021/01/14 10:21:01;;;;;;;12.93;11.03;;;3.20;99.90;;;;;;5045484;28;20460;-71
2021/01/14 10:23:28;;;;;;;12.97;10.43;;;3.20;99.90;;;;;;5046425;28;20545;-71
2021/01/14 10:25:55;;;;;;;13.20;11.30;;;3.20;99.90;;;;;;5045872;28;20475;-73
2021/01/14 10:28:22;;;;;;;14.83;11.33;;;3.30;99.90;;;;;;5045371;28;20475;-71
2021/01/14 10:30:49;;;;;;;13.63;10.60;;;3.40;99.90;;;;;;5045076;28;20646;-70
2021/01/14 10:33:16;;;;;;;14.77;11.87;;;3.40;99.90;;;;;;5045298;28;20488;-70
2021/01/14 10:35:43;;;;;;;18.27;10.70;;;3.40;99.90;;;;;;5044772;28;20544;-71
2021/01/14 10:38:11;;;;;;;12.30;11.00;;;3.40;99.90;;;;;;5045609;28;20531;-71
2021/01/14 10:40:40;;;;;;;15.37;11.67;;;3.40;99.90;;;;;;5044538;28;20467;-71
2021/01/14 10:43:08;;;;;;;13.67;10.20;;;3.40;99.90;;;;;;5044979;28;20463;-72
2021/01/14 10:45:35;;;;;;;16.63;10.70;;;3.30;99.90;;;;;;5044592;28;20483;-71
2021/01/14 10:48:13;;;;;;;15.47;11.17;;;3.20;99.90;;;;;;5045088;28;21255;-68
2021/01/14 10:50:51;;;;;;;14.00;10.20;;;3.30;99.90;;;;;;5044363;28;20493;-72
2021/01/14 10:53:25;;;;;;;16.10;11.03;;;3.20;99.90;;;;;;5047736;28;20524;-76
2021/01/14 10:56:06;;;;;;;16.47;11.83;;;3.10;99.90;;;;;;5049153;28;20592;-74
2021/01/14 10:58:33;;;;;;;13.90;10.50;;;3.10;99.90;;;;;;5050325;28;20593;-75
2021/01/14 11:01:00;;;;;;;13.50;9.90;;;3.10;99.90;;;;;;5048030;28;20496;-75
2021/01/14 11:03:29;;;;;;;12.43;9.53;;;3.20;99.90;;;;;;5049359;28;20884;-75
2021/01/14 11:05:58;;;;;;;16.40;11.37;;;3.20;99.90;;;;;;5049122;28;21034;-75
2021/01/14 11:08:26;;;;;;;12.63;11.13;;;3.20;99.90;;;;;;5049127;28;20480;-75
2021/01/14 11:11:04;;;;;;;13.17;10.57;;;3.20;99.90;;;;;;5048185;28;21082;-75
2021/01/14 11:13:38;;;;;;;20.47;10.60;;;3.20;99.90;;;;;;5048529;28;20527;-75
2021/01/14 11:16:05;;;;;;;13.97;9.73;;;3.10;99.90;;;;;;5048431;28;20462;-74
2021/01/14 11:18:35;;;;;;;11.67;9.63;;;3.20;99.90;;;;;;5048145;28;20531;-75
2021/01/14 11:21:03;;;;;;;17.57;11.00;;;3.10;99.90;;;;;;5047474;28;20487;-75
2021/01/14 11:23:29;;;;;;;13.77;9.77;;;3.10;99.90;;;;;;5048689;28;20543;-74
2021/01/14 11:25:55;;;;;;;11.07;8.50;;;3.10;99.90;;;;;;5048049;28;20468;-76
2021/01/14 11:28:22;;;;;;;11.67;7.93;;;3.20;99.90;;;;;;5054055;28;20562;-75
2021/01/14 11:30:48;;;;;;;9.67;8.53;;;3.20;99.90;;;;;;5055424;28;20992;-73
2021/01/14 11:33:15;;;;;;;9.33;7.50;;;3.30;99.90;;;;;;5058742;28;20559;-73
2021/01/14 11:35:41;;;;;;;15.30;8.63;;;3.30;99.90;;;;;;5061860;28;20478;-74
2021/01/14 11:38:09;;;;;;;9.87;8.37;;;3.40;99.90;;;;;;5069086;28;20442;-74
2021/01/14 11:40:35;;;;;;;9.90;7.50;;;3.50;99.90;;;;;;5052282;28;20519;-74
2021/01/14 11:43:02;;;;;;;13.80;9.00;;;3.60;99.90;;;;;;5048454;28;20587;-74
2021/01/14 11:45:28;;;;;;;14.43;8.27;;;3.70;99.90;;;;;;5048168;28;20960;-74
2021/01/14 11:47:55;;;;;;;13.63;7.87;;;3.70;99.90;;;;;;5048830;28;20521;-74
2021/01/14 11:50:21;;;;;;;9.80;7.33;;;3.60;99.90;;;;;;5048932;28;20489;-75
2021/01/14 11:52:49;;;;;;;8.33;7.43;;;3.60;99.90;;;;;;5050456;28;20534;-75
2021/01/14 11:55:16;;;;;;;14.17;7.57;;;3.60;99.90;;;;;;5050062;28;20472;-72
2021/01/14 11:57:42;;;;;;;9.57;6.83;;;3.60;99.90;;;;;;5049990;28;20446;-73
2021/01/14 12:00:10;;;;;;;11.37;7.70;;;3.60;99.90;;;;;;5049289;28;20597;-74
2021/01/14 12:02:37;;;;;;;9.03;7.33;;;3.60;99.90;;;;;;5049728;28;20546;-73
2021/01/14 12:05:05;;;;;;;8.30;6.50;;;3.60;99.90;;;;;;5049516;28;20509;-73
2021/01/14 12:07:31;;;;;;;8.23;7.07;;;3.60;99.90;;;;;;5049703;28;20566;-74
2021/01/14 12:09:58;;;;;;;7.80;6.70;;;3.60;99.90;;;;;;5049084;28;20538;-72
2021/01/14 12:12:25;;;;;;;8.37;6.40;;;3.70;99.90;;;;;;5049860;28;20503;-73
2021/01/14 12:14:52;;;;;;;10.10;6.97;;;3.80;99.90;;;;;;5049385;28;20450;-73
2021/01/14 12:17:18;;;;;;;12.27;7.27;;;3.90;99.90;;;;;;5049963;28;20527;-73
2021/01/14 12:19:44;;;;;;;13.43;7.70;;;3.90;99.90;;;;;;5048936;28;20547;-71
2021/01/14 12:22:11;;;;;;;12.87;6.53;;;3.90;99.90;;;;;;5049596;28;20564;-72
2021/01/14 12:24:37;;;;;;;10.80;6.40;;;4.00;99.90;;;;;;5049703;28;20486;-72
2021/01/14 12:27:04;;;;;;;10.17;7.00;;;4.10;99.90;;;;;;5048385;28;20567;-76
2021/01/14 12:29:31;;;;;;;8.87;5.40;;;4.20;99.90;;;;;;5048619;28;20597;-72
2021/01/14 12:31:58;;;;;;;7.97;6.43;;;4.30;99.90;;;;;;5049965;28;20967;-72
2021/01/14 12:34:24;;;;;;;10.53;6.10;;;4.40;99.90;;;;;;5050311;28;20531;-73
2021/01/14 12:36:54;;;;;;;7.57;6.47;;;4.40;99.90;;;;;;5049628;28;20484;-71
2021/01/14 12:39:21;;;;;;;8.87;6.73;;;4.50;99.90;;;;;;5047625;28;20523;-72
2021/01/14 12:41:47;;;;;;;9.20;6.20;;;4.50;99.90;;;;;;5050966;28;20546;-70
2021/01/14 12:44:14;;;;;;;8.87;7.20;;;4.60;99.90;;;;;;5051135;28;20531;-69
2021/01/14 12:46:43;;;;;;;8.80;6.73;;;4.50;99.90;;;;;;5051608;28;21309;-72
2021/01/14 12:49:10;;;;;;;8.73;6.63;;;4.50;99.90;;;;;;5051556;28;21020;-70
2021/01/14 12:51:38;;;;;;;10.50;6.20;;;4.40;99.90;;;;;;5051936;28;20988;-72
2021/01/14 12:54:05;;;;;;;6.90;5.87;;;4.30;99.90;;;;;;5051805;28;20543;-74
2021/01/14 12:56:32;;;;;;;6.97;6.27;;;4.40;99.90;;;;;;5051651;28;20530;-73
2021/01/14 12:59:00;;;;;;;8.03;5.83;;;4.50;99.90;;;;;;5051578;28;21157;-70
2021/01/14 13:01:30;;;;;;;11.67;7.10;;;4.50;99.90;;;;;;5051687;28;20487;-72
2021/01/14 13:03:58;;;;;;;11.17;7.50;;;4.40;99.90;;;;;;5044351;28;21123;-74
2021/01/14 13:06:26;;;;;;;11.03;7.07;;;4.30;99.90;;;;;;5049602;28;20514;-73
2021/01/14 13:08:53;;;;;;;8.70;6.60;;;4.30;99.90;;;;;;5049064;28;20544;-75
2021/01/14 13:11:19;;;;;;;8.60;7.00;;;4.20;99.90;;;;;;5049117;28;20562;-75
2021/01/14 13:13:46;;;;;;;8.83;5.90;;;4.10;99.90;;;;;;5050585;28;20510;-74
2021/01/14 13:16:12;;;;;;;12.77;7.20;;;4.10;99.90;;;;;;5046524;28;20534;-73
2021/01/14 13:18:38;;;;;;;8.53;6.53;;;3.90;99.90;;;;;;5049502;28;20985;-74
2021/01/14 13:21:06;;;;;;;7.30;6.50;;;3.90;99.90;;;;;;5048046;28;20567;-73
2021/01/14 13:23:32;;;;;;;15.70;6.80;;;3.90;99.90;;;;;;5047309;28;20535;-72
2021/01/14 13:25:59;;;;;;;12.20;7.20;;;3.90;99.90;;;;;;5047169;28;20634;-72
2021/01/14 13:28:25;;;;;;;8.20;6.97;;;3.90;99.90;;;;;;5047923;28;20579;-73
2021/01/14 13:30:52;;;;;;;7.87;6.33;;;4.00;99.90;;;;;;5047425;28;20551;-74
2021/01/14 13:33:18;;;;;;;7.63;6.13;;;4.20;99.90;;;;;;5048028;28;20535;-73